createdAt,value
2018-12-13T00:00:03.844Z,102193.27
2018-12-13T00:05:07.137Z,102188.58
2018-12-13T00:10:10.380Z,102185.70
2018-12-13T00:15:13.660Z,102177.33
2018-12-13T00:20:17.079Z,102179.20
2018-12-13T00:25:20.641Z,102168.66
2018-12-13T00:30:24.098Z,102174.23
2018-12-13T00:35:27.303Z,102172.55
2018-12-13T00:40:30.583Z,102176.33
2018-12-13T00:45:33.839Z,102178.21
2018-12-13T00:50:37.012Z,102174.70
2018-12-13T00:55:40.354Z,102172.22
2018-12-13T01:00:43.465Z,102174.05
2018-12-13T01:05:46.674Z,102178.56
2018-12-13T01:10:49.809Z,102178.05
2018-12-13T01:15:53.346Z,102180.46
2018-12-13T01:20:56.505Z,102174.23
2018-12-13T01:25:59.824Z,102170.50
2018-12-13T01:31:03.132Z,102176.51
2018-12-13T01:36:06.524Z,102170.50
2018-12-13T01:41:09.710Z,102168.88
2018-12-13T01:46:15.089Z,102165.45
2018-12-13T01:51:18.458Z,102165.09
2018-12-13T01:56:21.743Z,102162.98
2018-12-13T02:01:24.959Z,102163.77
2018-12-13T02:06:28.334Z,102157.16
2018-12-13T02:11:31.570Z,102153.49
2018-12-13T02:16:34.873Z,102148.16
2018-12-13T02:21:38.336Z,102147.07
2018-12-13T02:26:41.790Z,102144.10
2018-12-13T02:31:45.124Z,102142.78
2018-12-13T02:36:48.876Z,102144.04
2018-12-13T02:41:52.088Z,102141.00
2018-12-13T02:46:55.333Z,102139.32
2018-12-13T02:52:01.665Z,102131.63
2018-12-13T02:57:04.863Z,102136.20
2018-12-13T03:02:08.271Z,102135.02
2018-12-13T03:07:13.992Z,102132.05
2018-12-13T03:12:16.947Z,102129.23
2018-12-13T03:17:20.249Z,102124.42
2018-12-13T03:22:23.467Z,102119.38
2018-12-13T03:27:26.804Z,102115.53
2018-12-13T03:32:30.186Z,102113.92
2018-12-13T03:37:33.452Z,102112.67
2018-12-13T03:42:37.010Z,102112.21
2018-12-13T03:47:40.324Z,102103.61
2018-12-13T03:52:43.599Z,102097.86
2018-12-13T03:57:46.998Z,102090.80
2018-12-13T04:02:50.436Z,102097.30
2018-12-13T04:07:53.854Z,102107.72
2018-12-13T04:12:57.296Z,102100.41
2018-12-13T04:18:00.566Z,102092.02
2018-12-13T04:23:03.784Z,102097.19
2018-12-13T04:28:07.165Z,102092.23
2018-12-13T04:33:10.455Z,102091.37
2018-12-13T04:38:13.753Z,102085.70
2018-12-13T04:43:17.002Z,102087.23
2018-12-13T04:48:20.266Z,102088.27
2018-12-13T04:53:23.577Z,102083.20
2018-12-13T04:58:26.836Z,102082.16
2018-12-13T05:03:30.098Z,102076.48
2018-12-13T05:08:33.190Z,102067.88
2018-12-13T05:13:36.463Z,102068.06
2018-12-13T05:18:39.724Z,102065.34
2018-12-13T05:23:43.018Z,102063.38
2018-12-13T05:28:46.151Z,102069.77
2018-12-13T05:33:49.454Z,102068.60
2018-12-13T05:38:52.768Z,102068.24
2018-12-13T05:43:56.182Z,102068.31
2018-12-13T05:48:59.488Z,102057.36
2018-12-13T05:54:02.767Z,102065.84
2018-12-13T05:59:06.118Z,102055.75
2018-12-13T06:04:10.204Z,102059.60
2018-12-13T06:09:13.455Z,102053.57
2018-12-13T06:14:16.665Z,102056.96
2018-12-13T06:19:19.890Z,102062.71
2018-12-13T06:24:23.218Z,102061.78
2018-12-13T06:29:26.398Z,102062.17
2018-12-13T06:34:29.756Z,102060.39
2018-12-13T06:39:33.266Z,102061.24
2018-12-13T06:44:36.694Z,102062.31
2018-12-13T06:49:39.951Z,102066.28
2018-12-13T06:54:43.192Z,102073.34
2018-12-13T06:59:46.903Z,102074.20
2018-12-13T07:04:50.094Z,102070.23
2018-12-13T07:09:53.378Z,102075.06
2018-12-13T07:14:56.740Z,102069.84
2018-12-13T07:20:00.014Z,102074.67
2018-12-13T07:25:03.662Z,102072.20
2018-12-13T07:30:08.323Z,102066.81
2018-12-13T07:35:11.604Z,102073.88
2018-12-13T07:40:14.941Z,102065.34
2018-12-13T07:45:18.117Z,102069.98
2018-12-13T07:50:21.334Z,102076.80
2018-12-13T07:55:24.605Z,102073.23
2018-12-13T08:00:28.266Z,102076.02
2018-12-13T08:05:31.679Z,102072.80
2018-12-13T08:10:35.039Z,102076.59
2018-12-13T08:15:40.404Z,102084.83
2018-12-13T08:20:43.780Z,102084.05
2018-12-13T08:25:46.995Z,102084.44
2018-12-13T08:30:50.200Z,102078.73
2018-12-13T08:35:53.389Z,102075.16
2018-12-13T08:40:56.543Z,102073.73
2018-12-13T08:46:00.637Z,102073.45
2018-12-13T08:51:03.863Z,102073.80
2018-12-13T08:56:07.157Z,102077.45
2018-12-13T09:01:10.412Z,102067.48
2018-12-13T09:06:13.629Z,102071.58
2018-12-13T09:11:16.792Z,102075.59
2018-12-13T09:16:20.738Z,102075.17
2018-12-13T09:21:23.913Z,102066.00
2018-12-13T09:26:27.125Z,102067.56
2018-12-13T09:31:30.331Z,102079.48
2018-12-13T09:36:33.945Z,102065.02
2018-12-13T09:41:37.154Z,102067.10
2018-12-13T09:46:40.364Z,102061.97
2018-12-13T09:51:43.577Z,102061.55
2018-12-13T09:56:46.767Z,102054.70
2018-12-13T10:01:50.004Z,102053.28
2018-12-13T10:06:53.199Z,102044.83
2018-12-13T10:11:56.362Z,102041.29
2018-12-13T10:16:59.680Z,102039.11
2018-12-13T10:22:03.599Z,102032.61
2018-12-13T10:27:06.947Z,102030.34
2018-12-13T10:32:10.407Z,102028.91
2018-12-13T10:37:13.633Z,102032.19
2018-12-13T10:42:16.777Z,102019.15
2018-12-13T10:47:20.294Z,102025.16
2018-12-13T10:52:23.515Z,102013.72
2018-12-13T10:57:26.617Z,102010.89
2018-12-13T11:02:39.683Z,102002.84
2018-12-13T11:07:42.983Z,102004.17
2018-12-13T11:12:46.098Z,102002.68
2018-12-13T11:17:49.443Z,101997.08
2018-12-13T11:22:52.716Z,102002.56
2018-12-13T11:28:32.250Z,101998.11
2018-12-13T11:33:36.070Z,102000.50
2018-12-13T11:38:40.011Z,101999.28
2018-12-13T11:43:43.321Z,102006.25
2018-12-13T11:48:46.485Z,101997.17
2018-12-13T11:53:50.762Z,102003.61
2018-12-13T11:58:53.970Z,102012.41
2018-12-13T12:03:57.196Z,102005.09
2018-12-13T12:09:00.539Z,101996.00
2018-12-13T12:14:03.878Z,101996.77
2018-12-13T12:19:07.131Z,101992.11
2018-12-13T12:24:10.329Z,101990.02
2018-12-13T12:29:13.659Z,101987.37
2018-12-13T12:34:18.170Z,101991.80
2018-12-13T12:39:21.890Z,101985.11
2018-12-13T12:44:25.226Z,101985.14
2018-12-13T12:49:29.609Z,101979.58
2018-12-13T12:54:33.472Z,101981.53
2018-12-13T12:59:36.921Z,101983.94
2018-12-13T13:04:40.179Z,101983.97
2018-12-13T13:09:43.616Z,101977.61
2018-12-13T13:14:47.622Z,101977.22
2018-12-13T13:19:51.036Z,101972.22
2018-12-13T13:24:54.375Z,101978.14
2018-12-13T13:29:57.576Z,101971.12
2018-12-13T13:35:01.378Z,101974.05
2018-12-13T13:40:05.654Z,101973.06
2018-12-13T13:45:08.964Z,101972.98
2018-12-13T13:50:12.566Z,101976.88
2018-12-13T13:55:15.846Z,101989.13
2018-12-13T14:00:19.241Z,101984.88
2018-12-13T14:05:22.798Z,101989.03
2018-12-13T14:10:26.102Z,101982.22
2018-12-13T14:15:30.225Z,101983.23
2018-12-13T14:20:33.739Z,101986.33
2018-12-13T14:25:37.047Z,101982.16
2018-12-13T14:30:40.495Z,101985.84
2018-12-13T14:35:44.196Z,101984.88
2018-12-13T14:40:47.947Z,101986.25
2018-12-13T14:45:52.905Z,101971.44
2018-12-13T14:50:58.368Z,101973.95
2018-12-13T14:56:04.582Z,101974.48
2018-12-13T15:01:13.409Z,101972.55
2018-12-13T15:06:19.703Z,101972.70
2018-12-13T15:11:25.331Z,101970.31
2018-12-13T15:16:30.389Z,101977.77
2018-12-13T15:21:35.917Z,101976.92
2018-12-13T15:26:42.594Z,101981.66
2018-12-13T15:31:47.864Z,101981.05
2018-12-13T15:36:58.251Z,101978.41
2018-12-13T15:42:01.939Z,101981.70
2018-12-13T15:47:05.178Z,101978.74
2018-12-13T15:52:08.889Z,101980.20
2018-12-13T15:57:12.310Z,101974.17
2018-12-13T16:02:16.045Z,101975.38
2018-12-13T16:07:19.963Z,101974.31
2018-12-13T16:12:23.775Z,101971.67
2018-12-13T16:17:27.409Z,101971.67
2018-12-13T16:22:31.333Z,101975.70
2018-12-13T16:27:35.069Z,101971.34
2018-12-13T16:32:38.648Z,101968.78
2018-12-13T16:37:42.858Z,101970.75
2018-12-13T16:42:46.364Z,101974.17
2018-12-13T16:47:49.844Z,101974.11
2018-12-13T16:52:54.082Z,101978.67
2018-12-13T16:57:57.730Z,101979.85
2018-12-13T17:03:08.713Z,101976.71
2018-12-13T17:08:12.609Z,101983.24
2018-12-13T17:13:16.420Z,101982.92
2018-12-13T17:18:20.152Z,101987.55
2018-12-13T17:23:23.445Z,101977.85
2018-12-13T17:28:27.289Z,101978.10
2018-12-13T17:33:30.910Z,101971.22
2018-12-13T17:38:34.517Z,101978.53
2018-12-13T17:43:38.109Z,101987.77
2018-12-13T17:48:41.411Z,101983.02
2018-12-13T17:53:45.082Z,101984.66
2018-12-13T17:58:51.217Z,101986.41
2018-12-13T18:03:54.624Z,101979.44
2018-12-13T18:08:58.395Z,101981.86
2018-12-13T18:14:03.545Z,101982.63
2018-12-13T18:19:09.561Z,101982.05
2018-12-13T18:24:12.836Z,101989.25
2018-12-13T18:29:16.532Z,101989.59
2018-12-13T18:34:20.591Z,101989.02
2018-12-13T18:39:24.184Z,101993.55
2018-12-13T18:44:27.691Z,101995.09
2018-12-13T18:49:31.319Z,101999.65
2018-12-13T18:54:34.827Z,102003.48
2018-12-13T18:59:38.088Z,102004.56
2018-12-13T19:04:41.440Z,102003.30
2018-12-13T19:09:44.851Z,102005.70
2018-12-13T19:14:48.294Z,102016.56
2018-12-13T19:19:51.792Z,102012.73
2018-12-13T19:24:55.234Z,102014.84
2018-12-13T19:29:58.595Z,102019.82
2018-12-13T19:35:01.873Z,102025.92
2018-12-13T19:40:06.677Z,102016.86
2018-12-13T19:45:10.120Z,102019.96
2018-12-13T19:50:13.409Z,102030.91
2018-12-13T19:55:16.592Z,102028.09
2018-12-13T20:00:21.686Z,102028.97
2018-12-13T20:05:25.712Z,102030.84
2018-12-13T20:10:39.562Z,102039.83
2018-12-13T20:15:43.781Z,102039.13
2018-12-13T20:20:48.446Z,102038.14
2018-12-13T20:25:52.206Z,102036.50
2018-12-13T20:30:56.756Z,102036.59
2018-12-13T20:36:00.537Z,102035.41
2018-12-13T20:41:05.292Z,102035.97
2018-12-13T20:46:08.767Z,102038.38
2018-12-13T20:51:12.743Z,102042.58
2018-12-13T20:56:16.792Z,102042.54
2018-12-13T21:01:20.509Z,102049.06
2018-12-13T21:06:24.063Z,102050.55
2018-12-13T21:11:27.612Z,102059.77
2018-12-13T21:16:31.325Z,102062.02
2018-12-13T21:21:35.066Z,102052.95
2018-12-13T21:26:38.662Z,102059.61
2018-12-13T21:31:42.442Z,102061.78
2018-12-13T21:36:45.936Z,102061.95
2018-12-13T21:41:49.320Z,102059.44
2018-12-13T21:46:53.028Z,102060.06
2018-12-13T21:51:56.344Z,102053.30
2018-12-13T21:56:59.726Z,102051.98
2018-12-13T22:02:15.506Z,102055.23
2018-12-13T22:07:22.050Z,102054.53
2018-12-13T22:12:25.387Z,102050.41
2018-12-13T22:17:28.830Z,102058.37
2018-12-13T22:22:32.133Z,102061.56
2018-12-13T22:27:36.668Z,102064.25
2018-12-13T22:32:39.918Z,102056.73
2018-12-13T22:37:43.292Z,102056.51
2018-12-13T22:42:46.604Z,102058.66
2018-12-13T22:47:49.986Z,102062.23
2018-12-13T22:52:53.155Z,102052.86
2018-12-13T22:57:56.434Z,102054.17
2018-12-13T23:02:59.723Z,102059.20
2018-12-13T23:08:03.109Z,102057.70
2018-12-13T23:13:06.278Z,102052.14
2018-12-13T23:18:09.597Z,102055.53
2018-12-13T23:23:13.261Z,102054.89
2018-12-13T23:28:16.446Z,102054.74
2018-12-13T23:33:19.776Z,102048.98
2018-12-13T23:38:23.073Z,102052.39
2018-12-13T23:43:26.395Z,102053.25
2018-12-13T23:48:30.515Z,102059.38
2018-12-13T23:53:34.016Z,102057.05
2018-12-13T23:58:37.237Z,102057.91
